createdAt,value
2019-05-15T00:01:55.339Z,50.89
2019-05-15T00:04:25.522Z,50.93
2019-05-15T00:06:58.119Z,50.20
2019-05-15T00:09:28.667Z,48.79
2019-05-15T00:11:59.169Z,48.40
2019-05-15T00:14:30.040Z,48.32
2019-05-15T00:17:00.198Z,48.09
2019-05-15T00:19:30.942Z,48.00
2019-05-15T00:22:01.133Z,47.59
2019-05-15T00:24:31.582Z,47.54
2019-05-15T00:27:02.485Z,47.52
2019-05-15T00:29:32.697Z,47.61
2019-05-15T00:32:03.709Z,47.99
2019-05-15T00:34:34.045Z,48.06
2019-05-15T00:37:04.133Z,48.01
2019-05-15T00:39:34.252Z,48.09
2019-05-15T00:42:04.371Z,48.73
2019-05-15T00:44:34.493Z,49.07
2019-05-15T00:47:04.702Z,49.81
2019-05-15T00:49:38.098Z,49.83
2019-05-15T00:52:11.950Z,49.93
2019-05-15T00:54:39.426Z,50.25
2019-05-15T00:57:09.561Z,50.60
2019-05-15T00:59:40.903Z,51.21
2019-05-15T01:02:12.095Z,50.90
2019-05-15T01:04:43.307Z,50.95
2019-05-15T01:07:15.470Z,50.92
2019-05-15T01:09:48.543Z,51.90
2019-05-15T01:12:21.690Z,51.56
2019-05-15T01:14:52.044Z,51.46
2019-05-15T01:17:22.328Z,51.49
2019-05-15T01:19:52.875Z,52.01
2019-05-15T01:22:23.233Z,51.57
2019-05-15T01:24:53.794Z,52.19
2019-05-15T01:27:24.272Z,51.81
2019-05-15T01:29:54.675Z,51.90
2019-05-15T01:32:25.029Z,51.69
2019-05-15T01:34:55.306Z,51.49
2019-05-15T01:37:25.523Z,51.64
2019-05-15T01:39:57.997Z,52.29
2019-05-15T01:42:28.095Z,52.84
2019-05-15T01:44:59.034Z,52.83
2019-05-15T01:47:29.285Z,52.15
2019-05-15T01:49:59.425Z,52.17
2019-05-15T01:52:30.737Z,52.31
2019-05-15T01:55:00.906Z,52.36
2019-05-15T01:57:31.100Z,52.35
2019-05-15T02:00:02.794Z,52.06
2019-05-15T02:02:33.064Z,52.50
2019-05-15T02:05:05.072Z,52.23
2019-05-15T02:07:36.137Z,52.10
2019-05-15T02:10:09.160Z,52.12
2019-05-15T02:12:39.477Z,52.06
2019-05-15T02:15:10.720Z,53.01
2019-05-15T02:17:42.760Z,52.43
2019-05-15T02:20:13.038Z,52.47
2019-05-15T02:22:43.430Z,52.66
2019-05-15T02:25:13.782Z,53.58
2019-05-15T02:27:44.063Z,53.63
2019-05-15T02:30:24.221Z,52.94
2019-05-15T02:32:49.868Z,53.35
2019-05-15T02:35:19.707Z,53.49
2019-05-15T02:37:51.790Z,54.76
2019-05-15T02:40:22.795Z,55.70
2019-05-15T02:42:54.981Z,54.96
2019-05-15T02:45:25.066Z,55.31
2019-05-15T02:48:00.227Z,55.33
2019-05-15T02:50:32.035Z,55.09
2019-05-15T02:53:02.665Z,56.24
2019-05-15T02:55:40.600Z,55.80
2019-05-15T02:58:10.893Z,56.69
2019-05-15T03:00:48.395Z,56.73
2019-05-15T03:03:12.834Z,56.98
2019-05-15T03:05:44.254Z,58.37
2019-05-15T03:08:14.398Z,58.86
2019-05-15T03:10:49.787Z,58.02
2019-05-15T03:13:20.241Z,57.94
2019-05-15T03:15:50.347Z,58.38
2019-05-15T03:18:20.469Z,59.21
2019-05-15T03:20:53.343Z,59.58
2019-05-15T03:23:29.174Z,59.90
2019-05-15T03:26:02.997Z,59.85
2019-05-15T03:28:29.656Z,60.11
2019-05-15T03:31:22.348Z,59.73
2019-05-15T03:33:36.410Z,59.56
2019-05-15T03:36:03.948Z,60.02
2019-05-15T03:38:39.604Z,58.98
2019-05-15T03:41:10.721Z,59.29
2019-05-15T03:43:41.167Z,59.65
2019-05-15T03:46:11.794Z,59.43
2019-05-15T03:48:42.257Z,59.60
2019-05-15T03:51:13.143Z,60.49
2019-05-15T03:53:49.470Z,59.97
2019-05-15T03:56:19.606Z,60.38
2019-05-15T03:58:49.889Z,58.87
2019-05-15T04:01:30.246Z,59.05
2019-05-15T04:03:52.506Z,59.50
2019-05-15T04:06:29.620Z,58.13
2019-05-15T04:08:59.175Z,58.03
2019-05-15T04:11:29.654Z,58.58
2019-05-15T04:14:02.638Z,58.79
2019-05-15T04:16:32.829Z,57.74
2019-05-15T04:19:03.528Z,58.74
2019-05-15T04:21:34.590Z,58.07
2019-05-15T04:24:15.211Z,58.80
2019-05-15T04:26:48.715Z,58.27
2019-05-15T04:29:19.621Z,57.77
2019-05-15T04:31:59.816Z,57.98
2019-05-15T04:34:29.019Z,58.20
2019-05-15T04:37:01.756Z,58.03
2019-05-15T04:39:34.746Z,58.19
2019-05-15T04:42:15.574Z,58.43
2019-05-15T04:44:45.952Z,57.93
2019-05-15T04:47:19.257Z,57.62
2019-05-15T04:49:50.694Z,57.42
2019-05-15T04:52:23.008Z,56.66
2019-05-15T04:54:53.233Z,57.10
2019-05-15T04:57:23.560Z,57.22
2019-05-15T04:59:54.442Z,57.05
2019-05-15T05:02:27.102Z,57.23
2019-05-15T05:04:58.847Z,57.05
2019-05-15T05:07:32.216Z,57.57
2019-05-15T05:10:02.749Z,56.92
2019-05-15T05:12:43.408Z,56.91
2019-05-15T05:15:20.921Z,56.32
2019-05-15T05:17:51.945Z,56.66
2019-05-15T05:20:48.483Z,56.24
2019-05-15T05:23:23.947Z,56.16
2019-05-15T05:25:58.628Z,56.32
2019-05-15T05:28:29.123Z,56.44
2019-05-15T05:31:02.603Z,55.70
2019-05-15T05:33:33.315Z,55.12
2019-05-15T05:36:03.661Z,53.73
2019-05-15T05:38:34.210Z,54.25
2019-05-15T05:41:04.931Z,54.61
2019-05-15T05:43:38.095Z,53.19
2019-05-15T05:46:09.271Z,53.28
2019-05-15T05:48:39.951Z,54.00
2019-05-15T05:51:10.244Z,54.41
2019-05-15T05:53:40.549Z,53.17
2019-05-15T05:56:10.712Z,53.17
2019-05-15T05:58:41.555Z,50.85
2019-05-15T06:01:11.937Z,50.27
2019-05-15T06:03:42.096Z,50.48
2019-05-15T06:06:18.625Z,50.50
2019-05-15T06:08:49.890Z,50.07
2019-05-15T06:11:20.255Z,48.10
2019-05-15T06:13:52.602Z,49.58
2019-05-15T06:16:22.433Z,49.76
2019-05-15T06:18:52.651Z,49.10
2019-05-15T06:21:22.870Z,49.38
2019-05-15T06:24:06.269Z,49.24
2019-05-15T06:26:38.580Z,49.75
2019-05-15T06:29:09.156Z,47.45
2019-05-15T06:31:39.357Z,48.72
2019-05-15T06:34:10.791Z,48.26
2019-05-15T06:36:42.515Z,46.39
2019-05-15T06:39:12.948Z,46.88
2019-05-15T06:41:43.351Z,45.80
2019-05-15T06:44:15.235Z,46.07
2019-05-15T06:46:45.405Z,44.47
2019-05-15T06:49:17.850Z,44.85
2019-05-15T06:51:48.811Z,42.96
2019-05-15T06:54:19.707Z,41.96
2019-05-15T06:56:49.977Z,42.97
2019-05-15T06:59:20.434Z,43.59
2019-05-15T07:01:50.957Z,42.44
2019-05-15T07:04:21.231Z,42.21
2019-05-15T07:06:51.409Z,42.67
2019-05-15T07:09:21.658Z,43.97
2019-05-15T07:11:52.223Z,42.99
2019-05-15T07:14:23.573Z,42.95
2019-05-15T07:16:53.973Z,43.89
2019-05-15T07:19:24.222Z,40.49
2019-05-15T07:21:54.473Z,41.16
2019-05-15T07:24:25.737Z,43.32
2019-05-15T07:26:59.041Z,42.17
2019-05-15T07:29:30.657Z,40.07
2019-05-15T07:32:00.777Z,38.52
2019-05-15T07:34:31.063Z,39.53
2019-05-15T07:37:04.121Z,41.11
2019-05-15T07:39:34.462Z,41.25
2019-05-15T07:42:08.584Z,39.80
2019-05-15T07:44:40.949Z,40.40
2019-05-15T07:47:19.334Z,39.04
2019-05-15T07:49:49.774Z,38.79
2019-05-15T07:52:20.060Z,41.01
2019-05-15T07:54:50.501Z,39.39
2019-05-15T07:57:20.648Z,39.43
2019-05-15T07:59:50.816Z,39.72
2019-05-15T08:02:22.269Z,38.90
2019-05-15T08:04:53.010Z,39.62
2019-05-15T08:07:25.136Z,39.23
2019-05-15T08:09:58.844Z,39.07
2019-05-15T08:12:28.309Z,38.90
2019-05-15T08:14:58.586Z,39.72
2019-05-15T08:17:29.959Z,39.63
2019-05-15T08:20:00.263Z,40.10
2019-05-15T08:22:31.012Z,40.48
2019-05-15T08:25:07.670Z,41.66
2019-05-15T08:27:40.008Z,41.35
2019-05-15T08:30:13.808Z,41.34
2019-05-15T08:32:44.105Z,41.42
2019-05-15T08:35:19.350Z,40.15
2019-05-15T08:37:50.116Z,42.93
2019-05-15T08:40:21.567Z,41.18
2019-05-15T08:42:57.257Z,39.84
2019-05-15T08:45:24.065Z,39.89
2019-05-15T08:47:54.390Z,40.46
2019-05-15T08:50:25.142Z,40.06
2019-05-15T08:52:57.872Z,39.39
2019-05-15T08:55:28.169Z,39.71
2019-05-15T08:58:07.556Z,39.74
2019-05-15T09:00:30.314Z,39.60
2019-05-15T09:03:00.512Z,39.33
2019-05-15T09:05:31.993Z,38.87
2019-05-15T09:08:03.363Z,38.67
2019-05-15T09:10:34.092Z,37.63
2019-05-15T09:13:04.246Z,37.95
2019-05-15T09:15:39.590Z,37.94
2019-05-15T09:18:15.988Z,36.96
2019-05-15T09:20:42.467Z,36.94
2019-05-15T09:23:12.610Z,36.27
2019-05-15T09:25:43.194Z,36.84
2019-05-15T09:28:13.375Z,36.12
2019-05-15T09:30:48.132Z,37.90
2019-05-15T09:33:20.083Z,35.89
2019-05-15T09:35:58.329Z,38.48
2019-05-15T09:38:28.996Z,36.89
2019-05-15T09:40:59.339Z,33.91
2019-05-15T09:43:30.681Z,33.25
2019-05-15T09:46:00.948Z,32.88
2019-05-15T09:48:33.702Z,32.43
2019-05-15T09:51:04.055Z,33.05
2019-05-15T09:53:34.228Z,32.74
2019-05-15T09:56:04.491Z,32.18
2019-05-15T09:58:34.767Z,32.61
2019-05-15T10:01:04.953Z,32.58
2019-05-15T10:03:39.115Z,32.89
2019-05-15T10:06:09.059Z,32.96
2019-05-15T10:08:39.932Z,32.83
2019-05-15T10:11:10.293Z,32.78
2019-05-15T10:13:40.544Z,32.42
2019-05-15T10:16:10.641Z,31.88
2019-05-15T10:18:40.834Z,30.54
2019-05-15T10:21:10.989Z,30.17
2019-05-15T10:23:41.201Z,30.76
2019-05-15T10:26:14.269Z,31.94
2019-05-15T10:28:43.305Z,30.79
2019-05-15T10:31:13.491Z,29.84
2019-05-15T10:33:43.605Z,30.96
2019-05-15T10:36:13.687Z,30.41
2019-05-15T10:38:44.829Z,29.73
2019-05-15T10:41:15.398Z,29.81
2019-05-15T10:43:55.964Z,29.25
2019-05-15T10:46:19.521Z,28.56
2019-05-15T10:48:49.755Z,28.93
2019-05-15T10:51:19.941Z,27.98
2019-05-15T10:53:50.962Z,28.32
2019-05-15T10:56:24.479Z,28.32
2019-05-15T10:58:54.769Z,28.74
2019-05-15T11:01:24.944Z,28.91
2019-05-15T11:03:55.210Z,29.25
2019-05-15T11:06:25.502Z,30.23
2019-05-15T11:08:58.191Z,28.84
2019-05-15T11:11:27.566Z,29.17
2019-05-15T11:14:00.363Z,28.66
2019-05-15T11:16:30.370Z,27.67
2019-05-15T11:19:00.638Z,27.37
2019-05-15T11:21:30.783Z,27.53
2019-05-15T11:24:00.910Z,27.52
2019-05-15T11:26:33.563Z,28.39
2019-05-15T11:29:03.334Z,28.91
2019-05-15T11:31:33.421Z,27.13
2019-05-15T11:34:03.541Z,27.96
2019-05-15T11:36:33.733Z,27.89
2019-05-15T11:39:05.619Z,29.21
2019-05-15T11:41:38.574Z,29.78
2019-05-15T11:44:09.041Z,29.20
2019-05-15T11:46:39.372Z,28.86
2019-05-15T11:49:09.642Z,29.25
2019-05-15T11:51:45.079Z,28.84
2019-05-15T11:54:15.689Z,28.77
2019-05-15T11:56:48.994Z,27.81
2019-05-15T11:59:19.032Z,27.98
2019-05-15T12:01:49.184Z,27.17
2019-05-15T12:04:30.250Z,27.73
2019-05-15T12:07:01.582Z,27.12
2019-05-15T12:09:24.135Z,27.29
2019-05-15T12:11:54.424Z,28.00
2019-05-15T12:14:25.640Z,28.39
2019-05-15T12:17:07.105Z,27.14
2019-05-15T12:19:29.358Z,26.72
2019-05-15T12:22:00.008Z,26.60
2019-05-15T12:24:35.248Z,26.99
2019-05-15T12:27:13.884Z,26.86
2019-05-15T12:29:35.026Z,28.06
2019-05-15T12:32:23.504Z,27.10
2019-05-15T12:34:38.847Z,26.79
2019-05-15T12:37:09.955Z,26.33
2019-05-15T12:39:41.067Z,26.28
2019-05-15T13:00:02.154Z,29.44
2019-05-15T13:02:34.222Z,27.75
2019-05-15T13:05:05.197Z,27.63
2019-05-15T13:07:35.395Z,27.65
2019-05-15T13:10:08.670Z,28.37
2019-05-15T13:12:55.315Z,28.38
2019-05-15T13:15:11.180Z,29.03
2019-05-15T13:17:44.139Z,28.08
2019-05-15T13:20:14.822Z,30.20
2019-05-15T13:25:18.815Z,29.01
2019-05-15T13:27:49.873Z,29.23
2019-05-15T13:30:21.348Z,28.85
2019-05-15T13:32:53.087Z,29.01
2019-05-15T13:35:23.298Z,29.74
2019-05-15T13:37:58.606Z,30.25
2019-05-15T13:40:38.105Z,29.42
2019-05-15T13:43:08.266Z,29.20
2019-05-15T13:45:42.592Z,28.58
2019-05-15T13:48:12.727Z,28.78
2019-05-15T13:50:43.161Z,28.57
2019-05-15T13:53:13.324Z,28.40
2019-05-15T13:55:43.596Z,28.14
2019-05-15T13:58:14.123Z,28.11
2019-05-15T14:00:48.982Z,28.15
2019-05-15T14:03:18.613Z,27.77
2019-05-15T14:05:49.904Z,28.06
2019-05-15T14:08:20.308Z,28.01
2019-05-15T14:10:50.926Z,27.48
2019-05-15T14:13:22.631Z,27.71
2019-05-15T14:15:55.136Z,27.24
2019-05-15T14:18:30.082Z,27.78
2019-05-15T14:21:00.482Z,27.44
2019-05-15T14:23:31.098Z,27.86
2019-05-15T14:26:15.121Z,28.12
2019-05-15T14:28:38.800Z,28.54
2019-05-15T14:31:09.801Z,28.58
2019-05-15T14:33:40.516Z,28.75
2019-05-15T14:36:12.687Z,28.29
2019-05-15T14:38:44.383Z,28.27
2019-05-15T14:41:19.029Z,28.02
2019-05-15T14:43:49.676Z,28.30
2019-05-15T14:46:23.039Z,27.84
2019-05-15T14:48:53.264Z,27.93
2019-05-15T14:51:24.951Z,27.85
2019-05-15T14:53:58.336Z,28.06
2019-05-15T14:56:28.268Z,27.64
2019-05-15T14:58:58.698Z,26.68
2019-05-15T15:01:29.074Z,26.48
2019-05-15T15:03:59.297Z,26.56
2019-05-15T15:06:31.034Z,26.22
2019-05-15T15:09:03.959Z,25.32
2019-05-15T15:11:38.354Z,25.80
2019-05-15T15:14:08.568Z,25.62
2019-05-15T15:16:40.056Z,26.84
2019-05-15T15:19:10.303Z,25.03
2019-05-15T15:21:41.113Z,24.12
2019-05-15T15:24:11.313Z,23.34
2019-05-15T15:26:41.568Z,23.22
2019-05-15T15:29:14.902Z,24.33
2019-05-15T15:31:45.033Z,26.43
2019-05-15T15:34:15.834Z,26.03
2019-05-15T15:36:48.439Z,25.13
2019-05-15T15:39:18.596Z,24.80
2019-05-15T15:41:48.778Z,24.29
2019-05-15T15:44:19.974Z,24.87
2019-05-15T15:46:50.344Z,26.09
2019-05-15T15:49:21.606Z,26.45
2019-05-15T15:51:51.775Z,26.83
2019-05-15T15:54:22.039Z,26.76
2019-05-15T15:56:55.853Z,26.82
2019-05-15T15:59:28.812Z,26.73
2019-05-15T16:02:09.491Z,26.40
2019-05-15T16:04:41.777Z,25.34
2019-05-15T16:07:18.451Z,24.77
2019-05-15T16:09:53.316Z,25.56
2019-05-15T16:12:24.351Z,26.33
2019-05-15T16:14:54.533Z,27.44
2019-05-15T16:17:24.723Z,28.20
2019-05-15T16:19:57.001Z,28.65
2019-05-15T16:22:28.368Z,29.08
2019-05-15T16:25:02.155Z,29.46
2019-05-15T16:27:30.678Z,29.26
2019-05-15T16:30:01.034Z,29.92
2019-05-15T16:32:32.154Z,29.03
2019-05-15T16:35:03.736Z,28.99
2019-05-15T16:37:34.948Z,29.23
2019-05-15T16:40:05.796Z,29.33
2019-05-15T16:42:39.287Z,29.22
2019-05-15T16:45:09.983Z,29.42
2019-05-15T16:47:40.565Z,28.91
2019-05-15T16:50:18.043Z,29.18
2019-05-15T16:52:49.970Z,29.02
2019-05-15T16:55:23.875Z,28.85
2019-05-15T16:57:53.968Z,28.91
2019-05-15T17:00:24.146Z,29.17
2019-05-15T17:03:08.571Z,29.15
2019-05-15T17:05:29.109Z,29.13
2019-05-15T17:07:59.426Z,29.57
2019-05-15T17:10:29.680Z,29.75
2019-05-15T17:13:03.666Z,30.17
2019-05-15T17:15:38.372Z,29.98
2019-05-15T17:18:08.945Z,30.22
2019-05-15T17:20:39.307Z,30.09
2019-05-15T17:23:11.599Z,30.10
2019-05-15T17:25:43.259Z,30.13
2019-05-15T17:28:18.491Z,30.41
2019-05-15T17:30:49.511Z,30.19
2019-05-15T17:33:19.710Z,30.36
2019-05-15T17:35:53.032Z,31.14
2019-05-15T17:38:23.508Z,31.32
2019-05-15T17:40:58.937Z,31.64
2019-05-15T17:43:30.523Z,31.52
2019-05-15T17:46:01.499Z,31.67
2019-05-15T17:48:31.968Z,31.56
2019-05-15T17:51:06.269Z,31.74
2019-05-15T17:53:40.539Z,31.69
2019-05-15T17:56:14.750Z,31.62
2019-05-15T17:58:44.859Z,31.57
2019-05-15T18:01:16.085Z,31.60
2019-05-15T18:03:48.564Z,31.60
2019-05-15T18:06:19.126Z,31.78
2019-05-15T18:08:49.415Z,31.21
2019-05-15T18:11:20.421Z,31.01
2019-05-15T18:13:50.521Z,30.58
2019-05-15T18:16:20.775Z,30.62
2019-05-15T18:18:51.469Z,29.64
2019-05-15T18:21:22.732Z,29.59
2019-05-15T18:23:55.060Z,29.57
2019-05-15T18:26:25.236Z,29.76
2019-05-15T18:28:55.350Z,29.71
2019-05-15T18:31:25.633Z,29.88
2019-05-15T18:33:55.902Z,29.84
2019-05-15T18:36:30.391Z,30.19
2019-05-15T18:39:01.454Z,30.16
2019-05-15T18:41:32.844Z,29.91
2019-05-15T18:44:03.506Z,29.97
2019-05-15T18:46:34.702Z,29.85
2019-05-15T18:49:06.053Z,30.09
2019-05-15T18:51:42.855Z,30.53
2019-05-15T18:54:12.972Z,30.49
2019-05-15T18:56:43.116Z,30.40
2019-05-15T18:59:13.293Z,30.58
2019-05-15T19:01:44.365Z,30.77
2019-05-15T19:04:14.824Z,30.15
2019-05-15T19:06:50.037Z,30.33
2019-05-15T19:09:23.842Z,30.54
2019-05-15T19:11:58.183Z,30.40
2019-05-15T19:14:28.865Z,30.41
2019-05-15T19:16:59.310Z,30.36
2019-05-15T19:19:30.721Z,30.20
2019-05-15T19:22:01.586Z,30.49
2019-05-15T19:24:31.695Z,30.45
2019-05-15T19:27:01.968Z,30.50
2019-05-15T19:29:32.383Z,30.79
2019-05-15T19:32:02.679Z,31.28
2019-05-15T19:34:33.993Z,31.31
2019-05-15T19:37:05.266Z,32.31
2019-05-15T19:39:35.524Z,33.35
2019-05-15T19:42:11.625Z,33.01
2019-05-15T19:44:42.112Z,32.48
2019-05-15T19:47:12.883Z,33.01
2019-05-15T19:49:48.358Z,32.12
2019-05-15T19:52:20.904Z,32.28
2019-05-15T19:54:54.701Z,32.38
2019-05-15T19:57:30.879Z,31.81
2019-05-15T20:00:08.827Z,32.23
2019-05-15T20:02:40.456Z,31.72
2019-05-15T20:05:10.792Z,31.87
2019-05-15T20:07:41.250Z,31.28
2019-05-15T20:10:15.105Z,31.39
2019-05-15T20:12:47.943Z,31.61
2019-05-15T20:15:22.428Z,31.60
2019-05-15T20:17:53.894Z,31.59
2019-05-15T20:20:24.198Z,31.67
2019-05-15T20:22:54.554Z,31.57
2019-05-15T20:25:24.693Z,31.61
2019-05-15T20:27:55.035Z,31.71
2019-05-15T20:30:25.247Z,31.83
2019-05-15T20:32:58.489Z,31.52
2019-05-15T20:35:29.951Z,31.55
2019-05-15T20:38:00.303Z,31.64
2019-05-15T20:40:30.679Z,31.58
2019-05-15T20:43:01.065Z,31.76
2019-05-15T20:45:31.351Z,31.91
2019-05-15T20:48:01.501Z,31.91
2019-05-15T20:50:31.586Z,32.33
2019-05-15T20:53:01.889Z,32.14
2019-05-15T20:55:32.247Z,31.95
2019-05-15T20:58:02.558Z,32.05
2019-05-15T21:00:33.330Z,32.18
2019-05-15T21:03:03.416Z,32.22
2019-05-15T21:05:33.625Z,32.24
2019-05-15T21:08:03.812Z,32.67
2019-05-15T21:10:33.916Z,32.53
2019-05-15T21:13:04.255Z,32.52
2019-05-15T21:15:36.649Z,32.57
2019-05-15T21:18:14.665Z,32.80
2019-05-15T21:20:38.986Z,33.28
2019-05-15T21:23:09.268Z,32.91
2019-05-15T21:25:40.260Z,33.19
2019-05-15T21:28:10.428Z,33.05
2019-05-15T21:30:41.208Z,33.56
2019-05-15T21:33:11.422Z,33.30
2019-05-15T21:35:41.609Z,33.69
2019-05-15T21:38:11.879Z,33.60
2019-05-15T21:40:42.136Z,34.04
2019-05-15T21:43:13.897Z,33.82
2019-05-15T21:45:44.096Z,34.11
2019-05-15T21:48:15.279Z,33.85
2019-05-15T21:50:45.447Z,34.25
2019-05-15T21:53:17.620Z,34.02
2019-05-15T21:55:50.698Z,34.32
2019-05-15T21:58:20.999Z,34.60
2019-05-15T22:00:54.158Z,34.26
2019-05-15T22:03:28.523Z,34.88
2019-05-15T22:05:58.966Z,34.93
2019-05-15T22:08:29.169Z,35.35
2019-05-15T22:10:59.699Z,35.20
2019-05-15T22:13:31.605Z,35.62
2019-05-15T22:16:01.840Z,35.59
2019-05-15T22:18:31.998Z,36.11
2019-05-15T22:21:02.315Z,36.33
2019-05-15T22:23:33.522Z,35.97
2019-05-15T22:26:03.636Z,36.27
2019-05-15T22:28:33.797Z,36.42
2019-05-15T22:31:03.908Z,36.17
2019-05-15T22:33:34.002Z,37.13
2019-05-15T22:36:04.199Z,36.20
2019-05-15T22:38:34.322Z,36.13
2019-05-15T22:41:04.487Z,36.81
2019-05-15T22:43:36.094Z,35.88
2019-05-15T22:46:07.755Z,34.98
2019-05-15T22:48:38.190Z,35.08
2019-05-15T22:51:09.251Z,35.37
2019-05-15T22:53:39.748Z,36.17
2019-05-15T22:56:09.910Z,36.67
2019-05-15T22:58:40.068Z,36.23
2019-05-15T23:01:10.271Z,36.54
2019-05-15T23:03:40.436Z,36.54
2019-05-15T23:06:10.650Z,36.73
2019-05-15T23:08:40.811Z,38.35
2019-05-15T23:11:10.940Z,41.27
2019-05-15T23:13:41.124Z,45.35
2019-05-15T23:16:11.230Z,43.31
2019-05-15T23:18:41.694Z,41.82
2019-05-15T23:21:12.940Z,43.79
2019-05-15T23:23:44.926Z,44.09
2019-05-15T23:26:15.152Z,46.15
2019-05-15T23:28:45.286Z,46.17
2019-05-15T23:31:15.392Z,45.15
2019-05-15T23:33:45.516Z,45.44
2019-05-15T23:36:17.900Z,47.73
2019-05-15T23:38:48.131Z,49.24
2019-05-15T23:41:18.876Z,47.27
2019-05-15T23:43:49.242Z,46.83
2019-05-15T23:46:19.338Z,46.88
2019-05-15T23:48:49.460Z,47.35
2019-05-15T23:51:19.556Z,47.47
2019-05-15T23:53:49.702Z,46.93
2019-05-15T23:56:19.835Z,47.51
2019-05-15T23:58:50.180Z,47.96
